sensor_id;sensor_type;location;lat;lon;timestamp;P1;durP1;ratioP1;P2;durP2;ratioP2
50367;SDS011;36281;34.132;-118.018;2023-12-20T00:00:37;7.93;;;5.30;;
50367;SDS011;36281;34.132;-118.018;2023-12-20T00:03:08;6.35;;;5.00;;
50367;SDS011;36281;34.132;-118.018;2023-12-20T00:05:37;8.45;;;5.15;;
50367;SDS011;36281;34.132;-118.018;2023-12-20T00:08:08;7.95;;;5.10;;
50367;SDS011;36281;34.132;-118.018;2023-12-20T00:10:38;8.38;;;5.18;;
50367;SDS011;36281;34.132;-118.018;2023-12-20T00:13:09;8.10;;;5.10;;
50367;SDS011;36281;34.132;-118.018;2023-12-20T00:15:38;9.98;;;5.75;;
50367;SDS011;36281;34.132;-118.018;2023-12-20T00:18:09;7.03;;;5.20;;
50367;SDS011;36281;34.132;-118.018;2023-12-20T00:20:38;9.10;;;6.32;;
50367;SDS011;36281;34.132;-118.018;2023-12-20T00:23:07;8.05;;;6.32;;
50367;SDS011;36281;34.132;-118.018;2023-12-20T00:25:36;9.35;;;5.68;;
50367;SDS011;36281;34.132;-118.018;2023-12-20T00:28:06;11.50;;;6.07;;
50367;SDS011;36281;34.132;-118.018;2023-12-20T00:30:35;9.85;;;6.00;;
50367;SDS011;36281;34.132;-118.018;2023-12-20T00:33:04;10.10;;;5.68;;
50367;SDS011;36281;34.132;-118.018;2023-12-20T00:35:35;9.85;;;6.78;;
50367;SDS011;36281;34.132;-118.018;2023-12-20T00:38:04;11.82;;;6.60;;
50367;SDS011;36281;34.132;-118.018;2023-12-20T00:40:34;10.85;;;6.25;;
50367;SDS011;36281;34.132;-118.018;2023-12-20T00:43:03;9.13;;;6.55;;
50367;SDS011;36281;34.132;-118.018;2023-12-20T00:45:33;42.67;;;9.55;;
50367;SDS011;36281;34.132;-118.018;2023-12-20T00:48:02;134.90;;;16.35;;
50367;SDS011;36281;34.132;-118.018;2023-12-20T00:50:31;36.90;;;8.70;;
50367;SDS011;36281;34.132;-118.018;2023-12-20T00:53:02;12.43;;;6.28;;
50367;SDS011;36281;34.132;-118.018;2023-12-20T00:55:31;12.35;;;5.97;;
50367;SDS011;36281;34.132;-118.018;2023-12-20T00:58:00;9.82;;;5.35;;
50367;SDS011;36281;34.132;-118.018;2023-12-20T01:00:29;8.10;;;5.22;;
50367;SDS011;36281;34.132;-118.018;2023-12-20T01:02:59;8.68;;;5.25;;
50367;SDS011;36281;34.132;-118.018;2023-12-20T01:05:28;7.40;;;4.85;;
50367;SDS011;36281;34.132;-118.018;2023-12-20T01:07:57;5.95;;;4.53;;
50367;SDS011;36281;34.132;-118.018;2023-12-20T01:10:28;7.00;;;4.28;;
50367;SDS011;36281;34.132;-118.018;2023-12-20T01:12:57;5.75;;;4.20;;
50367;SDS011;36281;34.132;-118.018;2023-12-20T01:15:26;5.47;;;4.47;;
50367;SDS011;36281;34.132;-118.018;2023-12-20T01:17:55;5.88;;;4.32;;
50367;SDS011;36281;34.132;-118.018;2023-12-20T01:20:26;6.85;;;5.13;;
50367;SDS011;36281;34.132;-118.018;2023-12-20T01:22:55;6.13;;;4.90;;
50367;SDS011;36281;34.132;-118.018;2023-12-20T01:25:24;5.72;;;4.82;;
50367;SDS011;36281;34.132;-118.018;2023-12-20T01:27:55;6.20;;;5.20;;
50367;SDS011;36281;34.132;-118.018;2023-12-20T01:30:25;9.73;;;5.70;;
50367;SDS011;36281;34.132;-118.018;2023-12-20T01:32:54;9.10;;;5.80;;
50367;SDS011;36281;34.132;-118.018;2023-12-20T01:35:23;11.25;;;5.82;;
50367;SDS011;36281;34.132;-118.018;2023-12-20T01:37:52;8.52;;;5.82;;
50367;SDS011;36281;34.132;-118.018;2023-12-20T01:40:24;9.48;;;5.88;;
50367;SDS011;36281;34.132;-118.018;2023-12-20T01:43:02;8.55;;;5.35;;
50367;SDS011;36281;34.132;-118.018;2023-12-20T01:45:34;9.93;;;5.80;;
50367;SDS011;36281;34.132;-118.018;2023-12-20T01:48:04;7.30;;;5.40;;
50367;SDS011;36281;34.132;-118.018;2023-12-20T01:50:36;9.35;;;5.55;;
50367;SDS011;36281;34.132;-118.018;2023-12-20T01:53:06;7.50;;;5.60;;
50367;SDS011;36281;34.132;-118.018;2023-12-20T01:55:38;8.23;;;5.10;;
50367;SDS011;36281;34.132;-118.018;2023-12-20T01:58:10;7.80;;;5.03;;
50367;SDS011;36281;34.132;-118.018;2023-12-20T02:00:40;6.70;;;5.22;;
50367;SDS011;36281;34.132;-118.018;2023-12-20T02:03:09;9.18;;;4.70;;
50367;SDS011;36281;34.132;-118.018;2023-12-20T02:05:39;6.43;;;4.75;;
50367;SDS011;36281;34.132;-118.018;2023-12-20T02:08:09;6.10;;;4.85;;
50367;SDS011;36281;34.132;-118.018;2023-12-20T02:10:38;6.25;;;4.55;;
50367;SDS011;36281;34.132;-118.018;2023-12-20T02:13:10;6.70;;;4.60;;
50367;SDS011;36281;34.132;-118.018;2023-12-20T02:15:39;8.80;;;4.60;;
50367;SDS011;36281;34.132;-118.018;2023-12-20T02:18:10;5.43;;;4.57;;
50367;SDS011;36281;34.132;-118.018;2023-12-20T02:20:43;7.57;;;4.60;;
50367;SDS011;36281;34.132;-118.018;2023-12-20T02:23:14;8.73;;;5.13;;
50367;SDS011;36281;34.132;-118.018;2023-12-20T02:25:43;5.60;;;4.70;;
50367;SDS011;36281;34.132;-118.018;2023-12-20T02:28:12;4.90;;;4.40;;
50367;SDS011;36281;34.132;-118.018;2023-12-20T02:30:41;6.13;;;4.78;;
50367;SDS011;36281;34.132;-118.018;2023-12-20T02:33:11;7.10;;;5.32;;
50367;SDS011;36281;34.132;-118.018;2023-12-20T02:35:42;7.28;;;4.95;;
50367;SDS011;36281;34.132;-118.018;2023-12-20T02:38:11;6.22;;;4.88;;
50367;SDS011;36281;34.132;-118.018;2023-12-20T02:40:42;4.70;;;4.20;;
50367;SDS011;36281;34.132;-118.018;2023-12-20T02:43:16;8.88;;;4.68;;
50367;SDS011;36281;34.132;-118.018;2023-12-20T02:45:45;6.10;;;4.95;;
50367;SDS011;36281;34.132;-118.018;2023-12-20T02:48:14;8.05;;;5.63;;
50367;SDS011;36281;34.132;-118.018;2023-12-20T02:50:43;8.57;;;5.18;;
50367;SDS011;36281;34.132;-118.018;2023-12-20T02:53:14;7.22;;;5.35;;
50367;SDS011;36281;34.132;-118.018;2023-12-20T02:55:44;6.57;;;5.40;;
50367;SDS011;36281;34.132;-118.018;2023-12-20T02:58:14;6.15;;;5.10;;
50367;SDS011;36281;34.132;-118.018;2023-12-20T03:00:43;8.25;;;5.32;;
50367;SDS011;36281;34.132;-118.018;2023-12-20T03:03:12;9.20;;;5.28;;
50367;SDS011;36281;34.132;-118.018;2023-12-20T03:05:41;7.15;;;5.00;;
50367;SDS011;36281;34.132;-118.018;2023-12-20T03:08:10;6.95;;;4.65;;
50367;SDS011;36281;34.132;-118.018;2023-12-20T03:10:39;4.65;;;3.78;;
50367;SDS011;36281;34.132;-118.018;2023-12-20T03:13:10;4.72;;;4.28;;
50367;SDS011;36281;34.132;-118.018;2023-12-20T03:15:39;4.97;;;3.92;;
50367;SDS011;36281;34.132;-118.018;2023-12-20T03:18:08;4.93;;;4.18;;
50367;SDS011;36281;34.132;-118.018;2023-12-20T03:20:38;5.00;;;4.03;;
50367;SDS011;36281;34.132;-118.018;2023-12-20T03:23:08;4.10;;;3.70;;
50367;SDS011;36281;34.132;-118.018;2023-12-20T03:25:38;4.63;;;4.05;;
50367;SDS011;36281;34.132;-118.018;2023-12-20T03:28:07;6.53;;;3.97;;
50367;SDS011;36281;34.132;-118.018;2023-12-20T03:30:38;5.65;;;4.35;;
50367;SDS011;36281;34.132;-118.018;2023-12-20T03:33:07;6.28;;;4.38;;
50367;SDS011;36281;34.132;-118.018;2023-12-20T03:35:36;6.25;;;4.90;;
50367;SDS011;36281;34.132;-118.018;2023-12-20T03:38:05;6.05;;;4.30;;
50367;SDS011;36281;34.132;-118.018;2023-12-20T03:40:34;5.75;;;4.60;;
50367;SDS011;36281;34.132;-118.018;2023-12-20T03:43:03;5.38;;;4.82;;
50367;SDS011;36281;34.132;-118.018;2023-12-20T03:45:33;6.70;;;5.03;;
50367;SDS011;36281;34.132;-118.018;2023-12-20T03:48:04;5.95;;;5.10;;
50367;SDS011;36281;34.132;-118.018;2023-12-20T03:50:34;6.70;;;5.45;;
50367;SDS011;36281;34.132;-118.018;2023-12-20T03:53:03;6.47;;;5.50;;
50367;SDS011;36281;34.132;-118.018;2023-12-20T03:55:32;6.53;;;5.20;;
50367;SDS011;36281;34.132;-118.018;2023-12-20T03:58:01;5.90;;;5.20;;
50367;SDS011;36281;34.132;-118.018;2023-12-20T04:00:31;6.50;;;5.80;;
50367;SDS011;36281;34.132;-118.018;2023-12-20T04:03:00;6.25;;;5.65;;
50367;SDS011;36281;34.132;-118.018;2023-12-20T04:05:30;8.80;;;6.65;;
50367;SDS011;36281;34.132;-118.018;2023-12-20T04:08:01;8.85;;;6.70;;
50367;SDS011;36281;34.132;-118.018;2023-12-20T04:10:31;9.63;;;6.97;;
50367;SDS011;36281;34.132;-118.018;2023-12-20T04:13:01;7.25;;;6.55;;
50367;SDS011;36281;34.132;-118.018;2023-12-20T04:15:30;8.45;;;7.38;;
50367;SDS011;36281;34.132;-118.018;2023-12-20T04:17:59;7.95;;;6.20;;
50367;SDS011;36281;34.132;-118.018;2023-12-20T04:20:30;8.80;;;6.60;;
50367;SDS011;36281;34.132;-118.018;2023-12-20T04:22:59;7.43;;;6.70;;
50367;SDS011;36281;34.132;-118.018;2023-12-20T04:25:28;7.72;;;6.53;;
50367;SDS011;36281;34.132;-118.018;2023-12-20T04:27:57;9.32;;;7.00;;
50367;SDS011;36281;34.132;-118.018;2023-12-20T04:30:26;9.35;;;7.03;;
50367;SDS011;36281;34.132;-118.018;2023-12-20T04:32:55;8.98;;;7.22;;
50367;SDS011;36281;34.132;-118.018;2023-12-20T04:35:25;9.02;;;6.97;;
50367;SDS011;36281;34.132;-118.018;2023-12-20T04:37:56;8.15;;;6.75;;
50367;SDS011;36281;34.132;-118.018;2023-12-20T04:40:25;9.43;;;7.13;;
50367;SDS011;36281;34.132;-118.018;2023-12-20T04:42:54;9.93;;;7.03;;
50367;SDS011;36281;34.132;-118.018;2023-12-20T04:45:23;7.90;;;6.78;;
50367;SDS011;36281;34.132;-118.018;2023-12-20T04:47:52;7.97;;;7.15;;
50367;SDS011;36281;34.132;-118.018;2023-12-20T04:50:21;11.18;;;8.55;;
50367;SDS011;36281;34.132;-118.018;2023-12-20T04:52:51;8.93;;;7.95;;
50367;SDS011;36281;34.132;-118.018;2023-12-20T04:55:21;10.02;;;7.95;;
50367;SDS011;36281;34.132;-118.018;2023-12-20T04:57:51;10.05;;;7.97;;
50367;SDS011;36281;34.132;-118.018;2023-12-20T05:00:20;9.88;;;8.45;;
50367;SDS011;36281;34.132;-118.018;2023-12-20T05:02:49;10.57;;;8.35;;
50367;SDS011;36281;34.132;-118.018;2023-12-20T05:05:18;10.52;;;8.80;;
50367;SDS011;36281;34.132;-118.018;2023-12-20T05:07:47;9.73;;;8.73;;
50367;SDS011;36281;34.132;-118.018;2023-12-20T05:10:17;10.27;;;8.90;;
50367;SDS011;36281;34.132;-118.018;2023-12-20T05:12:48;10.73;;;9.15;;
50367;SDS011;36281;34.132;-118.018;2023-12-20T05:15:17;11.75;;;9.70;;
50367;SDS011;36281;34.132;-118.018;2023-12-20T05:17:46;13.50;;;9.48;;
50367;SDS011;36281;34.132;-118.018;2023-12-20T05:20:16;11.65;;;8.80;;
50367;SDS011;36281;34.132;-118.018;2023-12-20T05:22:45;12.32;;;9.48;;
50367;SDS011;36281;34.132;-118.018;2023-12-20T05:25:15;12.95;;;9.00;;
50367;SDS011;36281;34.132;-118.018;2023-12-20T05:27:44;10.77;;;8.30;;
50367;SDS011;36281;34.132;-118.018;2023-12-20T05:30:16;13.88;;;9.48;;
50367;SDS011;36281;34.132;-118.018;2023-12-20T05:32:45;11.48;;;9.40;;
50367;SDS011;36281;34.132;-118.018;2023-12-20T05:35:14;14.80;;;9.88;;
50367;SDS011;36281;34.132;-118.018;2023-12-20T05:37:44;12.02;;;10.18;;
50367;SDS011;36281;34.132;-118.018;2023-12-20T05:40:13;16.05;;;10.20;;
50367;SDS011;36281;34.132;-118.018;2023-12-20T05:42:43;13.05;;;9.45;;
50367;SDS011;36281;34.132;-118.018;2023-12-20T05:45:12;10.40;;;9.30;;
50367;SDS011;36281;34.132;-118.018;2023-12-20T05:47:44;11.13;;;9.63;;
50367;SDS011;36281;34.132;-118.018;2023-12-20T05:50:14;13.48;;;10.40;;
50367;SDS011;36281;34.132;-118.018;2023-12-20T05:52:43;12.10;;;10.10;;
50367;SDS011;36281;34.132;-118.018;2023-12-20T05:55:12;16.70;;;10.75;;
50367;SDS011;36281;34.132;-118.018;2023-12-20T05:57:41;13.38;;;11.10;;
50367;SDS011;36281;34.132;-118.018;2023-12-20T06:00:11;14.95;;;11.18;;
50367;SDS011;36281;34.132;-118.018;2023-12-20T06:02:41;14.25;;;11.15;;
50367;SDS011;36281;34.132;-118.018;2023-12-20T06:05:12;16.38;;;12.00;;
50367;SDS011;36281;34.132;-118.018;2023-12-20T06:07:41;14.02;;;11.07;;
50367;SDS011;36281;34.132;-118.018;2023-12-20T06:10:11;16.88;;;12.40;;
50367;SDS011;36281;34.132;-118.018;2023-12-20T06:12:41;15.77;;;12.63;;
50367;SDS011;36281;34.132;-118.018;2023-12-20T06:15:11;15.07;;;12.65;;
50367;SDS011;36281;34.132;-118.018;2023-12-20T06:17:40;16.42;;;12.63;;
50367;SDS011;36281;34.132;-118.018;2023-12-20T06:20:11;15.70;;;12.70;;
50367;SDS011;36281;34.132;-118.018;2023-12-20T06:22:40;13.63;;;11.82;;
50367;SDS011;36281;34.132;-118.018;2023-12-20T06:25:10;17.90;;;12.30;;
50367;SDS011;36281;34.132;-118.018;2023-12-20T06:27:39;19.35;;;12.82;;
50367;SDS011;36281;34.132;-118.018;2023-12-20T06:30:09;16.98;;;12.93;;
50367;SDS011;36281;34.132;-118.018;2023-12-20T06:32:39;18.20;;;13.05;;
50367;SDS011;36281;34.132;-118.018;2023-12-20T06:35:11;14.48;;;12.68;;
50367;SDS011;36281;34.132;-118.018;2023-12-20T06:37:40;16.15;;;12.73;;
50367;SDS011;36281;34.132;-118.018;2023-12-20T06:40:13;14.85;;;12.35;;
50367;SDS011;36281;34.132;-118.018;2023-12-20T06:42:45;15.93;;;13.50;;
50367;SDS011;36281;34.132;-118.018;2023-12-20T06:45:31;15.20;;;11.98;;
50367;SDS011;36281;34.132;-118.018;2023-12-20T06:48:00;14.82;;;12.60;;
50367;SDS011;36281;34.132;-118.018;2023-12-20T06:50:31;15.48;;;12.70;;
50367;SDS011;36281;34.132;-118.018;2023-12-20T06:53:00;14.77;;;11.95;;
50367;SDS011;36281;34.132;-118.018;2023-12-20T06:55:34;14.43;;;12.27;;
50367;SDS011;36281;34.132;-118.018;2023-12-20T06:58:05;14.65;;;13.10;;
50367;SDS011;36281;34.132;-118.018;2023-12-20T07:00:34;17.25;;;13.00;;
50367;SDS011;36281;34.132;-118.018;2023-12-20T07:03:03;17.55;;;13.05;;
50367;SDS011;36281;34.132;-118.018;2023-12-20T07:05:34;15.93;;;12.52;;
50367;SDS011;36281;34.132;-118.018;2023-12-20T07:08:04;16.13;;;12.32;;
50367;SDS011;36281;34.132;-118.018;2023-12-20T07:10:34;14.60;;;11.70;;
50367;SDS011;36281;34.132;-118.018;2023-12-20T07:13:03;15.80;;;12.73;;
50367;SDS011;36281;34.132;-118.018;2023-12-20T07:15:32;14.52;;;11.95;;
50367;SDS011;36281;34.132;-118.018;2023-12-20T07:18:01;15.07;;;12.25;;
50367;SDS011;36281;34.132;-118.018;2023-12-20T07:20:30;15.32;;;12.40;;
50367;SDS011;36281;34.132;-118.018;2023-12-20T07:23:01;13.88;;;12.23;;
50367;SDS011;36281;34.132;-118.018;2023-12-20T07:25:30;15.35;;;12.30;;
50367;SDS011;36281;34.132;-118.018;2023-12-20T07:28:00;13.73;;;11.75;;
50367;SDS011;36281;34.132;-118.018;2023-12-20T07:30:29;14.98;;;12.90;;
50367;SDS011;36281;34.132;-118.018;2023-12-20T07:32:58;16.77;;;13.77;;
50367;SDS011;36281;34.132;-118.018;2023-12-20T07:35:28;17.40;;;13.40;;
50367;SDS011;36281;34.132;-118.018;2023-12-20T07:37:58;20.23;;;13.02;;
50367;SDS011;36281;34.132;-118.018;2023-12-20T07:40:28;17.27;;;12.82;;
50367;SDS011;36281;34.132;-118.018;2023-12-20T07:42:57;25.75;;;14.20;;
50367;SDS011;36281;34.132;-118.018;2023-12-20T07:45:27;17.45;;;13.07;;
50367;SDS011;36281;34.132;-118.018;2023-12-20T07:47:56;18.05;;;13.43;;
50367;SDS011;36281;34.132;-118.018;2023-12-20T07:50:25;16.70;;;13.18;;
50367;SDS011;36281;34.132;-118.018;2023-12-20T07:52:55;17.65;;;13.70;;
50367;SDS011;36281;34.132;-118.018;2023-12-20T07:55:28;15.50;;;13.50;;
50367;SDS011;36281;34.132;-118.018;2023-12-20T07:57:58;17.05;;;13.38;;
50367;SDS011;36281;34.132;-118.018;2023-12-20T08:00:28;15.32;;;12.98;;
50367;SDS011;36281;34.132;-118.018;2023-12-20T08:02:57;15.70;;;13.38;;
50367;SDS011;36281;34.132;-118.018;2023-12-20T08:05:26;15.82;;;13.30;;
50367;SDS011;36281;34.132;-118.018;2023-12-20T08:07:55;17.23;;;13.75;;
50367;SDS011;36281;34.132;-118.018;2023-12-20T08:10:24;17.25;;;13.95;;
50367;SDS011;36281;34.132;-118.018;2023-12-20T08:12:55;15.73;;;13.98;;
50367;SDS011;36281;34.132;-118.018;2023-12-20T08:15:24;22.13;;;14.52;;
50367;SDS011;36281;34.132;-118.018;2023-12-20T08:17:53;18.80;;;14.60;;
50367;SDS011;36281;34.132;-118.018;2023-12-20T08:20:22;16.88;;;14.20;;
50367;SDS011;36281;34.132;-118.018;2023-12-20T08:23:05;18.70;;;15.15;;
50367;SDS011;36281;34.132;-118.018;2023-12-20T08:25:34;18.08;;;15.15;;
50367;SDS011;36281;34.132;-118.018;2023-12-20T08:28:05;22.27;;;15.40;;
50367;SDS011;36281;34.132;-118.018;2023-12-20T08:30:35;21.48;;;15.50;;
50367;SDS011;36281;34.132;-118.018;2023-12-20T08:33:04;17.08;;;14.98;;
50367;SDS011;36281;34.132;-118.018;2023-12-20T08:35:39;21.92;;;16.27;;
50367;SDS011;36281;34.132;-118.018;2023-12-20T08:38:08;19.25;;;15.65;;
50367;SDS011;36281;34.132;-118.018;2023-12-20T08:40:37;19.85;;;14.98;;
50367;SDS011;36281;34.132;-118.018;2023-12-20T08:43:08;16.58;;;14.30;;
50367;SDS011;36281;34.132;-118.018;2023-12-20T08:45:37;18.35;;;14.68;;
50367;SDS011;36281;34.132;-118.018;2023-12-20T08:48:07;15.77;;;13.25;;
50367;SDS011;36281;34.132;-118.018;2023-12-20T08:50:36;15.75;;;13.02;;
50367;SDS011;36281;34.132;-118.018;2023-12-20T08:53:06;15.00;;;13.13;;
50367;SDS011;36281;34.132;-118.018;2023-12-20T08:55:35;17.10;;;13.52;;
50367;SDS011;36281;34.132;-118.018;2023-12-20T08:58:05;15.52;;;13.73;;
50367;SDS011;36281;34.132;-118.018;2023-12-20T09:00:37;16.85;;;13.60;;
50367;SDS011;36281;34.132;-118.018;2023-12-20T09:03:06;16.55;;;12.68;;
50367;SDS011;36281;34.132;-118.018;2023-12-20T09:05:36;15.27;;;13.13;;
50367;SDS011;36281;34.132;-118.018;2023-12-20T09:08:05;15.45;;;12.90;;
50367;SDS011;36281;34.132;-118.018;2023-12-20T09:10:37;16.40;;;13.55;;
50367;SDS011;36281;34.132;-118.018;2023-12-20T09:13:06;14.50;;;13.00;;
50367;SDS011;36281;34.132;-118.018;2023-12-20T09:15:37;15.23;;;13.52;;
50367;SDS011;36281;34.132;-118.018;2023-12-20T09:18:06;15.65;;;13.23;;
50367;SDS011;36281;34.132;-118.018;2023-12-20T09:20:35;17.30;;;12.88;;
50367;SDS011;36281;34.132;-118.018;2023-12-20T09:23:09;15.60;;;12.75;;
50367;SDS011;36281;34.132;-118.018;2023-12-20T09:25:39;15.35;;;11.82;;
50367;SDS011;36281;34.132;-118.018;2023-12-20T09:28:08;13.43;;;11.93;;
50367;SDS011;36281;34.132;-118.018;2023-12-20T09:30:40;16.33;;;12.23;;
50367;SDS011;36281;34.132;-118.018;2023-12-20T09:33:09;14.75;;;11.98;;
50367;SDS011;36281;34.132;-118.018;2023-12-20T09:35:38;13.55;;;10.77;;
50367;SDS011;36281;34.132;-118.018;2023-12-20T09:38:08;12.52;;;11.07;;
50367;SDS011;36281;34.132;-118.018;2023-12-20T09:40:37;13.32;;;10.88;;
50367;SDS011;36281;34.132;-118.018;2023-12-20T09:43:10;11.23;;;10.02;;
50367;SDS011;36281;34.132;-118.018;2023-12-20T09:45:45;12.57;;;10.70;;
50367;SDS011;36281;34.132;-118.018;2023-12-20T09:48:16;13.50;;;9.85;;
50367;SDS011;36281;34.132;-118.018;2023-12-20T09:50:47;10.85;;;9.57;;
50367;SDS011;36281;34.132;-118.018;2023-12-20T09:53:19;12.60;;;9.82;;
50367;SDS011;36281;34.132;-118.018;2023-12-20T09:55:52;10.73;;;9.63;;
50367;SDS011;36281;34.132;-118.018;2023-12-20T09:58:21;10.60;;;9.50;;
50367;SDS011;36281;34.132;-118.018;2023-12-20T10:00:52;10.75;;;9.10;;
50367;SDS011;36281;34.132;-118.018;2023-12-20T10:03:23;10.95;;;9.30;;
50367;SDS011;36281;34.132;-118.018;2023-12-20T10:05:56;11.82;;;9.82;;
50367;SDS011;36281;34.132;-118.018;2023-12-20T10:08:27;10.45;;;8.90;;
50367;SDS011;36281;34.132;-118.018;2023-12-20T10:10:57;11.88;;;8.98;;
50367;SDS011;36281;34.132;-118.018;2023-12-20T10:13:30;9.40;;;8.23;;
50367;SDS011;36281;34.132;-118.018;2023-12-20T10:16:01;9.52;;;8.50;;
50367;SDS011;36281;34.132;-118.018;2023-12-20T10:18:30;9.05;;;7.30;;
50367;SDS011;36281;34.132;-118.018;2023-12-20T10:21:05;12.57;;;7.63;;
50367;SDS011;36281;34.132;-118.018;2023-12-20T10:23:38;9.27;;;6.95;;
50367;SDS011;36281;34.132;-118.018;2023-12-20T10:26:08;8.57;;;7.30;;
50367;SDS011;36281;34.132;-118.018;2023-12-20T10:28:37;11.35;;;8.85;;
50367;SDS011;36281;34.132;-118.018;2023-12-20T10:31:08;14.82;;;9.38;;
50367;SDS011;36281;34.132;-118.018;2023-12-20T10:33:37;11.25;;;9.15;;
50367;SDS011;36281;34.132;-118.018;2023-12-20T10:36:09;13.32;;;10.32;;
50367;SDS011;36281;34.132;-118.018;2023-12-20T10:38:40;14.32;;;10.15;;
50367;SDS011;36281;34.132;-118.018;2023-12-20T10:41:12;13.48;;;10.25;;
50367;SDS011;36281;34.132;-118.018;2023-12-20T10:43:44;12.55;;;10.45;;
50367;SDS011;36281;34.132;-118.018;2023-12-20T10:46:16;13.98;;;10.73;;
50367;SDS011;36281;34.132;-118.018;2023-12-20T10:48:47;15.23;;;10.95;;
50367;SDS011;36281;34.132;-118.018;2023-12-20T10:51:19;13.95;;;10.50;;
50367;SDS011;36281;34.132;-118.018;2023-12-20T10:53:50;14.32;;;10.07;;
50367;SDS011;36281;34.132;-118.018;2023-12-20T10:56:20;12.98;;;10.52;;
50367;SDS011;36281;34.132;-118.018;2023-12-20T10:58:51;12.50;;;10.05;;
50367;SDS011;36281;34.132;-118.018;2023-12-20T11:01:22;12.93;;;10.68;;
50367;SDS011;36281;34.132;-118.018;2023-12-20T11:03:52;12.13;;;10.57;;
50367;SDS011;36281;34.132;-118.018;2023-12-20T11:06:33;12.85;;;11.07;;
50367;SDS011;36281;34.132;-118.018;2023-12-20T11:09:10;14.73;;;10.43;;
50367;SDS011;36281;34.132;-118.018;2023-12-20T11:11:46;12.82;;;10.27;;
50367;SDS011;36281;34.132;-118.018;2023-12-20T11:14:27;11.65;;;10.38;;
50367;SDS011;36281;34.132;-118.018;2023-12-20T11:17:08;12.77;;;10.70;;
50367;SDS011;36281;34.132;-118.018;2023-12-20T11:19:38;12.10;;;10.45;;
50367;SDS011;36281;34.132;-118.018;2023-12-20T11:22:32;15.05;;;10.95;;
50367;SDS011;36281;34.132;-118.018;2023-12-20T11:25:08;12.40;;;11.00;;
50367;SDS011;36281;34.132;-118.018;2023-12-20T11:27:40;12.07;;;10.80;;
50367;SDS011;36281;34.132;-118.018;2023-12-20T11:30:16;15.05;;;10.25;;
50367;SDS011;36281;34.132;-118.018;2023-12-20T11:32:47;14.52;;;11.60;;
50367;SDS011;36281;34.132;-118.018;2023-12-20T11:35:17;14.57;;;10.90;;
50367;SDS011;36281;34.132;-118.018;2023-12-20T11:37:51;15.95;;;11.75;;
50367;SDS011;36281;34.132;-118.018;2023-12-20T11:40:20;13.77;;;11.45;;
50367;SDS011;36281;34.132;-118.018;2023-12-20T11:42:53;14.27;;;11.18;;
50367;SDS011;36281;34.132;-118.018;2023-12-20T11:45:23;14.25;;;12.40;;
50367;SDS011;36281;34.132;-118.018;2023-12-20T11:47:58;13.80;;;11.85;;
50367;SDS011;36281;34.132;-118.018;2023-12-20T11:50:27;13.88;;;12.45;;
50367;SDS011;36281;34.132;-118.018;2023-12-20T11:52:58;15.18;;;12.10;;
50367;SDS011;36281;34.132;-118.018;2023-12-20T11:55:27;13.95;;;12.20;;
50367;SDS011;36281;34.132;-118.018;2023-12-20T11:57:56;13.05;;;11.52;;
50367;SDS011;36281;34.132;-118.018;2023-12-20T12:00:26;14.40;;;12.02;;
50367;SDS011;36281;34.132;-118.018;2023-12-20T12:02:56;13.55;;;11.68;;
50367;SDS011;36281;34.132;-118.018;2023-12-20T12:05:27;16.20;;;11.52;;
50367;SDS011;36281;34.132;-118.018;2023-12-20T12:07:58;14.70;;;11.73;;
50367;SDS011;36281;34.132;-118.018;2023-12-20T12:10:28;15.43;;;11.63;;
50367;SDS011;36281;34.132;-118.018;2023-12-20T12:12:57;12.77;;;11.13;;
50367;SDS011;36281;34.132;-118.018;2023-12-20T12:15:27;12.80;;;11.32;;
50367;SDS011;36281;34.132;-118.018;2023-12-20T12:17:57;14.20;;;11.50;;
50367;SDS011;36281;34.132;-118.018;2023-12-20T12:20:28;14.48;;;11.48;;
50367;SDS011;36281;34.132;-118.018;2023-12-20T12:22:58;14.40;;;11.75;;
50367;SDS011;36281;34.132;-118.018;2023-12-20T12:25:28;11.90;;;10.52;;
50367;SDS011;36281;34.132;-118.018;2023-12-20T12:28:02;11.85;;;10.65;;
50367;SDS011;36281;34.132;-118.018;2023-12-20T12:30:32;13.50;;;11.65;;
50367;SDS011;36281;34.132;-118.018;2023-12-20T12:33:13;14.55;;;11.80;;
50367;SDS011;36281;34.132;-118.018;2023-12-20T12:35:44;14.00;;;11.75;;
50367;SDS011;36281;34.132;-118.018;2023-12-20T12:38:15;12.82;;;11.38;;
50367;SDS011;36281;34.132;-118.018;2023-12-20T12:40:47;12.70;;;11.15;;
50367;SDS011;36281;34.132;-118.018;2023-12-20T12:43:17;14.02;;;12.07;;
50367;SDS011;36281;34.132;-118.018;2023-12-20T12:45:46;15.70;;;11.68;;
50367;SDS011;36281;34.132;-118.018;2023-12-20T12:48:18;12.95;;;10.93;;
50367;SDS011;36281;34.132;-118.018;2023-12-20T12:50:47;13.23;;;10.73;;
50367;SDS011;36281;34.132;-118.018;2023-12-20T12:53:19;15.65;;;11.77;;
50367;SDS011;36281;34.132;-118.018;2023-12-20T12:55:48;14.88;;;11.43;;
50367;SDS011;36281;34.132;-118.018;2023-12-20T12:58:17;15.02;;;11.43;;
50367;SDS011;36281;34.132;-118.018;2023-12-20T13:00:46;13.73;;;11.48;;
50367;SDS011;36281;34.132;-118.018;2023-12-20T13:03:16;13.18;;;11.15;;
50367;SDS011;36281;34.132;-118.018;2023-12-20T13:05:46;12.68;;;11.23;;
50367;SDS011;36281;34.132;-118.018;2023-12-20T13:08:16;13.85;;;11.45;;
50367;SDS011;36281;34.132;-118.018;2023-12-20T13:10:45;12.57;;;10.60;;
50367;SDS011;36281;34.132;-118.018;2023-12-20T13:13:14;12.82;;;11.10;;
50367;SDS011;36281;34.132;-118.018;2023-12-20T13:15:43;14.35;;;11.82;;
50367;SDS011;36281;34.132;-118.018;2023-12-20T13:18:22;12.63;;;11.30;;
50367;SDS011;36281;34.132;-118.018;2023-12-20T13:20:51;14.77;;;11.63;;
50367;SDS011;36281;34.132;-118.018;2023-12-20T13:23:20;15.35;;;11.05;;
50367;SDS011;36281;34.132;-118.018;2023-12-20T13:25:50;14.02;;;11.45;;
50367;SDS011;36281;34.132;-118.018;2023-12-20T13:28:19;13.77;;;11.27;;
50367;SDS011;36281;34.132;-118.018;2023-12-20T13:30:48;14.48;;;11.73;;
50367;SDS011;36281;34.132;-118.018;2023-12-20T13:33:17;15.05;;;12.40;;
50367;SDS011;36281;34.132;-118.018;2023-12-20T13:35:48;13.93;;;12.27;;
50367;SDS011;36281;34.132;-118.018;2023-12-20T13:38:17;15.82;;;12.88;;
50367;SDS011;36281;34.132;-118.018;2023-12-20T13:40:46;15.82;;;12.25;;
50367;SDS011;36281;34.132;-118.018;2023-12-20T13:43:15;15.82;;;12.55;;
50367;SDS011;36281;34.132;-118.018;2023-12-20T13:45:48;14.88;;;12.02;;
50367;SDS011;36281;34.132;-118.018;2023-12-20T13:48:17;14.73;;;12.75;;
50367;SDS011;36281;34.132;-118.018;2023-12-20T13:50:48;16.67;;;13.15;;
50367;SDS011;36281;34.132;-118.018;2023-12-20T13:53:17;14.75;;;12.77;;
50367;SDS011;36281;34.132;-118.018;2023-12-20T13:55:47;14.50;;;12.27;;
50367;SDS011;36281;34.132;-118.018;2023-12-20T13:58:16;15.30;;;11.88;;
50367;SDS011;36281;34.132;-118.018;2023-12-20T14:00:45;18.95;;;12.95;;
50367;SDS011;36281;34.132;-118.018;2023-12-20T14:03:14;15.40;;;12.18;;
50367;SDS011;36281;34.132;-118.018;2023-12-20T14:05:43;15.80;;;12.02;;
50367;SDS011;36281;34.132;-118.018;2023-12-20T14:08:14;17.27;;;12.25;;
50367;SDS011;36281;34.132;-118.018;2023-12-20T14:10:43;14.35;;;11.88;;